| Back to River Map | <<< Previous Forecast Point | | | Next Forecast Point >>> | Printer Version | Graph Version |  |
|
WEST WALKER RIVER - HOYE BRIDGE (HOYN2)
| Latitude: 38.73º N | Longitude: 119.43º W | Elevation: 4980 Feet | | Forecast Type: Unofficial Location |
| Location: Douglas County in Nevada | Bulletin Group: Eastern Sierra | River Group: Eastern Sierra |
| Issuance Time: | May 07 2026 at 7:41 AM PDT | Next Issuance: | May 08 2026 at 9:00 AM PDT
| |
| Action/Monitor: 7.0 Feet | Minor Flood: 8.0 Feet | Moderate Flood: 9.0 Feet | Major Flood: 10.0 Feet |
# Tabular Observed and Forecast Hydrograph Information
#
# Location: West Walker River - Hoye Bridge (HOYN2)
#
# File Generation Time: 05/07/2026 at 07:42 AM PDT
# Data Interval: 1 Hour
#
# Most Recent Date & Time of Maximum Observed: 05/06/2026 at 09:00 PM PDT
# Maximum Observed Stage: 3.48 Feet
# Maximum Observed Flow: 485 cfs
#
# Earliest Date & Time of Maximum Forecast: 05/11/2026 at 07:00 PM PDT
# Maximum Forecast Stage: 3.66 Feet
# Maximum Forecast Flow: 534 cfs
#
# OBSERVED
#
# Date & Time (Local) Stage (Feet) Flow (cfs) Trend Observed Status
# ---------------------------------------------------------------------------------
05/02/2026 07 AM PDT 2.28 215 Normal
05/02/2026 08 AM PDT 2.28 215 0 Normal
05/02/2026 09 AM PDT 2.28 215 0 Normal
05/02/2026 10 AM PDT 2.29 217 + Normal
05/02/2026 11 AM PDT 2.29 217 0 Normal
05/02/2026 12 PM PDT 2.29 217 0 Normal
05/02/2026 01 PM PDT 2.29 217 0 Normal
05/02/2026 02 PM PDT 2.29 217 0 Normal
05/02/2026 03 PM PDT 2.29 217 0 Normal
05/02/2026 04 PM PDT 2.30 218 + Normal
05/02/2026 05 PM PDT 2.35 228 + Normal
05/02/2026 06 PM PDT 2.38 233 + Normal
05/02/2026 07 PM PDT 2.40 237 + Normal
05/02/2026 08 PM PDT 2.41 239 + Normal
05/02/2026 09 PM PDT 2.41 239 0 Normal
05/02/2026 10 PM PDT 2.42 241 + Normal
05/02/2026 11 PM PDT 2.42 241 0 Normal
05/03/2026 12 AM PDT 2.42 241 0 Normal
05/03/2026 01 AM PDT 2.42 241 0 Normal
05/03/2026 02 AM PDT 2.43 243 + Normal
05/03/2026 03 AM PDT 2.43 243 0 Normal
05/03/2026 04 AM PDT 2.43 243 0 Normal
05/03/2026 05 AM PDT 2.43 243 0 Normal
05/03/2026 06 AM PDT 2.43 243 0 Normal
05/03/2026 07 AM PDT 2.43 243 0 Normal
05/03/2026 08 AM PDT 2.43 243 0 Normal
05/03/2026 09 AM PDT 2.43 243 0 Normal
05/03/2026 10 AM PDT 2.44 245 + Normal
05/03/2026 11 AM PDT 2.44 245 0 Normal
05/03/2026 12 PM PDT 2.44 245 0 Normal
05/03/2026 01 PM PDT 2.44 245 0 Normal
05/03/2026 02 PM PDT 2.44 245 0 Normal
05/03/2026 03 PM PDT 2.44 245 0 Normal
05/03/2026 04 PM PDT 2.44 245 0 Normal
05/03/2026 05 PM PDT 2.45 247 + Normal
05/03/2026 06 PM PDT 2.45 247 0 Normal
05/03/2026 07 PM PDT 2.45 247 0 Normal
05/03/2026 08 PM PDT 2.45 247 0 Normal
05/03/2026 09 PM PDT 2.45 247 0 Normal
05/03/2026 10 PM PDT 2.45 247 0 Normal
05/03/2026 11 PM PDT 2.46 249 + Normal
05/04/2026 12 AM PDT 2.46 249 0 Normal
05/04/2026 01 AM PDT 2.46 249 0 Normal
05/04/2026 02 AM PDT 2.46 249 0 Normal
05/04/2026 03 AM PDT 2.46 249 0 Normal
05/04/2026 04 AM PDT 2.47 250 + Normal
05/04/2026 05 AM PDT 2.46 249 - Normal
05/04/2026 06 AM PDT 2.46 249 0 Normal
05/04/2026 07 AM PDT 2.46 249 0 Normal
05/04/2026 08 AM PDT 2.47 250 + Normal
05/04/2026 09 AM PDT 2.47 250 0 Normal
05/04/2026 10 AM PDT 2.47 250 0 Normal
05/04/2026 11 AM PDT 2.47 250 0 Normal
05/04/2026 12 PM PDT 2.47 250 0 Normal
05/04/2026 01 PM PDT 2.48 252 + Normal
05/04/2026 02 PM PDT 2.48 252 0 Normal
05/04/2026 03 PM PDT 2.49 254 + Normal
05/04/2026 04 PM PDT 2.57 270 + Normal
05/04/2026 05 PM PDT 2.66 289 + Normal
05/04/2026 06 PM PDT 2.71 299 + Normal
05/04/2026 07 PM PDT 2.74 306 + Normal
05/04/2026 08 PM PDT 2.75 308 + Normal
05/04/2026 09 PM PDT 2.76 310 + Normal
05/04/2026 10 PM PDT 2.77 312 + Normal
05/04/2026 11 PM PDT 2.78 314 + Normal
05/05/2026 12 AM PDT 2.79 317 + Normal
05/05/2026 01 AM PDT 2.79 317 0 Normal
05/05/2026 02 AM PDT 2.81 321 + Normal
05/05/2026 03 AM PDT 2.82 323 + Normal
05/05/2026 04 AM PDT 2.83 325 + Normal
05/05/2026 05 AM PDT 2.85 330 + Normal
05/05/2026 06 AM PDT 2.86 332 + Normal
05/05/2026 07 AM PDT 2.88 337 + Normal
05/05/2026 08 AM PDT 2.89 339 + Normal
05/05/2026 09 AM PDT 2.91 343 + Normal
05/05/2026 10 AM PDT 2.92 346 + Normal
05/05/2026 11 AM PDT 2.92 346 0 Normal
05/05/2026 12 PM PDT 2.94 350 + Normal
05/05/2026 01 PM PDT 2.95 352 + Normal
05/05/2026 02 PM PDT 2.96 355 + Normal
05/05/2026 03 PM PDT 2.97 357 + Normal
05/05/2026 04 PM PDT 2.99 362 + Normal
05/05/2026 05 PM PDT 3.03 371 + Normal
05/05/2026 06 PM PDT 3.13 395 + Normal
05/05/2026 07 PM PDT 3.19 410 + Normal
05/05/2026 08 PM PDT 3.22 417 + Normal
05/05/2026 09 PM PDT 3.24 422 + Normal
05/05/2026 10 PM PDT 3.25 425 + Normal
05/05/2026 11 PM PDT 3.28 432 + Normal
05/06/2026 12 AM PDT 3.29 435 + Normal
05/06/2026 01 AM PDT 3.30 437 + Normal
05/06/2026 02 AM PDT 3.30 437 0 Normal
05/06/2026 03 AM PDT 3.31 440 + Normal
05/06/2026 04 AM PDT 3.32 443 + Normal
05/06/2026 05 AM PDT 3.33 445 + Normal
05/06/2026 06 AM PDT 3.33 445 0 Normal
05/06/2026 07 AM PDT 3.33 445 0 Normal
05/06/2026 08 AM PDT 3.34 448 + Normal
05/06/2026 09 AM PDT 3.34 448 0 Normal
05/06/2026 10 AM PDT 3.34 448 0 Normal
05/06/2026 11 AM PDT 3.34 448 0 Normal
05/06/2026 12 PM PDT 3.33 445 - Normal
05/06/2026 01 PM PDT 3.34 448 + Normal
05/06/2026 02 PM PDT 3.33 445 - Normal
05/06/2026 03 PM PDT 3.34 448 + Normal
05/06/2026 04 PM PDT 3.36 453 + Normal
05/06/2026 05 PM PDT 3.39 461 + Normal
05/06/2026 06 PM PDT 3.43 471 + Normal
05/06/2026 07 PM PDT 3.46 479 + Normal
05/06/2026 08 PM PDT 3.48 485 + Normal
05/06/2026 09 PM PDT 3.48 485 0 Normal
05/06/2026 10 PM PDT 3.47 482 - Normal
05/06/2026 11 PM PDT 3.45 477 - Normal
05/07/2026 12 AM PDT 3.45 477 0 Normal
05/07/2026 01 AM PDT 3.43 471 - Normal
05/07/2026 02 AM PDT 3.43 471 0 Normal
05/07/2026 03 AM PDT 3.42 469 - Normal
05/07/2026 04 AM PDT 3.42 469 0 Normal
05/07/2026 05 AM PDT 3.41 466 - Normal
05/07/2026 06 AM PDT 3.41 466 0 Normal
05/07/2026 07 AM PDT 3.41 466 0 Normal
#
# FORECAST
#
# Date & Time (Local) Stage (Feet) Flow (cfs) Trend Forecast Status
# ---------------------------------------------------------------------------------
05/07/2026 08 AM PDT 3.40 463 Normal
05/07/2026 09 AM PDT 3.40 463 0 Normal
05/07/2026 10 AM PDT 3.40 463 0 Normal
05/07/2026 11 AM PDT 3.40 463 0 Normal
05/07/2026 12 PM PDT 3.40 463 0 Normal
05/07/2026 01 PM PDT 3.40 463 0 Normal
05/07/2026 02 PM PDT 3.40 463 0 Normal
05/07/2026 03 PM PDT 3.40 463 0 Normal
05/07/2026 04 PM PDT 3.41 466 + Normal
05/07/2026 05 PM PDT 3.41 466 0 Normal
05/07/2026 06 PM PDT 3.41 466 0 Normal
05/07/2026 07 PM PDT 3.41 466 0 Normal
05/07/2026 08 PM PDT 3.41 466 0 Normal
05/07/2026 09 PM PDT 3.41 466 0 Normal
05/07/2026 10 PM PDT 3.41 466 0 Normal
05/07/2026 11 PM PDT 3.41 466 0 Normal
05/08/2026 12 AM PDT 3.41 466 0 Normal
05/08/2026 01 AM PDT 3.41 466 0 Normal
05/08/2026 02 AM PDT 3.41 466 0 Normal
05/08/2026 03 AM PDT 3.40 463 - Normal
05/08/2026 04 AM PDT 3.40 463 0 Normal
05/08/2026 05 AM PDT 3.40 463 0 Normal
05/08/2026 06 AM PDT 3.40 463 0 Normal
05/08/2026 07 AM PDT 3.40 463 0 Normal
05/08/2026 08 AM PDT 3.40 463 0 Normal
05/08/2026 09 AM PDT 3.41 466 + Normal
05/08/2026 10 AM PDT 3.41 466 0 Normal
05/08/2026 11 AM PDT 3.42 469 + Normal
05/08/2026 12 PM PDT 3.42 469 0 Normal
05/08/2026 01 PM PDT 3.43 471 + Normal
05/08/2026 02 PM PDT 3.43 471 0 Normal
05/08/2026 03 PM PDT 3.44 474 + Normal
05/08/2026 04 PM PDT 3.44 474 0 Normal
05/08/2026 05 PM PDT 3.45 477 + Normal
05/08/2026 06 PM PDT 3.45 477 0 Normal
05/08/2026 07 PM PDT 3.46 479 + Normal
05/08/2026 08 PM PDT 3.46 479 0 Normal
05/08/2026 09 PM PDT 3.46 479 0 Normal
05/08/2026 10 PM PDT 3.46 479 0 Normal
05/08/2026 11 PM PDT 3.46 479 0 Normal
05/09/2026 12 AM PDT 3.46 479 0 Normal
05/09/2026 01 AM PDT 3.46 479 0 Normal
05/09/2026 02 AM PDT 3.46 479 0 Normal
05/09/2026 03 AM PDT 3.46 479 0 Normal
05/09/2026 04 AM PDT 3.46 479 0 Normal
05/09/2026 05 AM PDT 3.46 479 0 Normal
05/09/2026 06 AM PDT 3.46 479 0 Normal
05/09/2026 07 AM PDT 3.46 479 0 Normal
05/09/2026 08 AM PDT 3.47 482 + Normal
05/09/2026 09 AM PDT 3.47 482 0 Normal
05/09/2026 10 AM PDT 3.48 485 + Normal
05/09/2026 11 AM PDT 3.48 485 0 Normal
05/09/2026 12 PM PDT 3.49 487 + Normal
05/09/2026 01 PM PDT 3.49 487 0 Normal
05/09/2026 02 PM PDT 3.50 490 + Normal
05/09/2026 03 PM PDT 3.51 493 + Normal
05/09/2026 04 PM PDT 3.51 493 0 Normal
05/09/2026 05 PM PDT 3.52 495 + Normal
05/09/2026 06 PM PDT 3.52 495 0 Normal
05/09/2026 07 PM PDT 3.52 495 0 Normal
05/09/2026 08 PM PDT 3.53 498 + Normal
05/09/2026 09 PM PDT 3.53 498 0 Normal
05/09/2026 10 PM PDT 3.53 498 0 Normal
05/09/2026 11 PM PDT 3.53 498 0 Normal
05/10/2026 12 AM PDT 3.53 498 0 Normal
05/10/2026 01 AM PDT 3.52 495 - Normal
05/10/2026 02 AM PDT 3.52 495 0 Normal
05/10/2026 03 AM PDT 3.52 495 0 Normal
05/10/2026 04 AM PDT 3.52 495 0 Normal
05/10/2026 05 AM PDT 3.52 495 0 Normal
05/10/2026 06 AM PDT 3.52 495 0 Normal
05/10/2026 07 AM PDT 3.52 495 0 Normal
05/10/2026 08 AM PDT 3.52 495 0 Normal
05/10/2026 09 AM PDT 3.52 495 0 Normal
05/10/2026 10 AM PDT 3.53 498 + Normal
05/10/2026 11 AM PDT 3.53 498 0 Normal
05/10/2026 12 PM PDT 3.54 501 + Normal
05/10/2026 01 PM PDT 3.54 501 0 Normal
05/10/2026 02 PM PDT 3.55 504 + Normal
05/10/2026 03 PM PDT 3.56 506 + Normal
05/10/2026 04 PM PDT 3.56 506 0 Normal
05/10/2026 05 PM PDT 3.57 509 + Normal
05/10/2026 06 PM PDT 3.57 509 0 Normal
05/10/2026 07 PM PDT 3.57 509 0 Normal
05/10/2026 08 PM PDT 3.57 509 0 Normal
05/10/2026 09 PM PDT 3.57 509 0 Normal
05/10/2026 10 PM PDT 3.57 509 0 Normal
05/10/2026 11 PM PDT 3.57 509 0 Normal
05/11/2026 12 AM PDT 3.57 509 0 Normal
05/11/2026 01 AM PDT 3.57 509 0 Normal
05/11/2026 02 AM PDT 3.56 506 - Normal
05/11/2026 03 AM PDT 3.56 506 0 Normal
05/11/2026 04 AM PDT 3.56 506 0 Normal
05/11/2026 05 AM PDT 3.56 506 0 Normal
05/11/2026 06 AM PDT 3.56 506 0 Normal
05/11/2026 07 AM PDT 3.56 506 0 Normal
05/11/2026 08 AM PDT 3.57 509 + Normal
05/11/2026 09 AM PDT 3.58 512 + Normal
05/11/2026 10 AM PDT 3.58 512 0 Normal
05/11/2026 11 AM PDT 3.59 515 + Normal
05/11/2026 12 PM PDT 3.60 517 + Normal
05/11/2026 01 PM PDT 3.61 520 + Normal
05/11/2026 02 PM PDT 3.62 523 + Normal
05/11/2026 03 PM PDT 3.63 526 + Normal
05/11/2026 04 PM PDT 3.64 529 + Normal
05/11/2026 05 PM PDT 3.65 531 + Normal
05/11/2026 06 PM PDT 3.65 531 0 Normal
05/11/2026 07 PM PDT 3.66 534 + Normal
05/11/2026 08 PM PDT 3.66 534 0 Normal
05/11/2026 09 PM PDT 3.66 534 0 Normal
05/11/2026 10 PM PDT 3.66 534 0 Normal
05/11/2026 11 PM PDT 3.66 534 0 Normal
05/12/2026 12 AM PDT 3.65 531 - Normal
05/12/2026 01 AM PDT 3.65 531 0 Normal
05/12/2026 02 AM PDT 3.65 531 0 Normal
05/12/2026 03 AM PDT 3.64 529 - Normal
05/12/2026 04 AM PDT 3.64 529 0 Normal
05/12/2026 05 AM PDT 3.64 529 0 Normal
#
# NOTE 1: Stages are rounded to the nearest hundredth (.01) of a foot.
# NOTE 2: Flows are rounded to the nearest (1) cfs.
# NOTE 3: Trends are determined using hourly change in unrounded stage and flow.
# NOTE 4: Maximum Values are determined using unrounded stage and flow.
|